createdAt,value
2019-05-20T00:01:07.059Z,25.97
2019-05-20T00:03:35.850Z,27.83
2019-05-20T00:06:05.232Z,29.23
2019-05-20T00:08:34.040Z,28.50
2019-05-20T00:11:02.818Z,28.90
2019-05-20T00:13:31.560Z,28.20
2019-05-20T00:16:00.327Z,27.90
2019-05-20T00:18:29.103Z,30.40
2019-05-20T00:20:57.852Z,28.13
2019-05-20T00:23:26.644Z,25.37
2019-05-20T00:25:55.411Z,25.03
2019-05-20T00:28:24.215Z,25.50
2019-05-20T00:30:52.965Z,24.60
2019-05-20T00:33:21.765Z,22.77
2019-05-20T00:35:50.573Z,24.40
2019-05-20T00:38:19.321Z,24.45
2019-05-20T00:40:48.061Z,21.90
2019-05-20T00:43:16.825Z,22.98
2019-05-20T00:45:45.560Z,26.03
2019-05-20T00:48:14.337Z,25.48
2019-05-20T00:50:43.009Z,26.93
2019-05-20T00:53:11.825Z,29.27
2019-05-20T00:55:41.967Z,24.80
2019-05-20T00:58:10.804Z,30.50
2019-05-20T01:00:40.322Z,27.30
2019-05-20T01:03:09.140Z,29.23
2019-05-20T01:05:37.918Z,28.80
2019-05-20T01:08:06.790Z,28.70
2019-05-20T01:10:35.617Z,29.47
2019-05-20T01:13:05.150Z,30.90
2019-05-20T01:15:34.033Z,31.65
2019-05-20T01:18:02.904Z,31.97
2019-05-20T01:20:31.641Z,31.67
2019-05-20T01:23:00.401Z,32.37
2019-05-20T01:25:29.165Z,31.83
2019-05-20T01:27:57.975Z,32.77
2019-05-20T01:30:26.715Z,32.67
2019-05-20T01:32:55.470Z,35.40
2019-05-20T01:35:24.365Z,36.73
2019-05-20T01:37:53.106Z,36.73
2019-05-20T01:40:21.920Z,43.55
2019-05-20T01:42:50.803Z,49.27
2019-05-20T01:45:19.549Z,52.47
2019-05-20T01:47:48.299Z,51.20
2019-05-20T01:50:17.085Z,53.10
2019-05-20T01:52:46.058Z,53.87
2019-05-20T01:55:14.945Z,54.07
2019-05-20T01:57:43.687Z,55.27
2019-05-20T02:00:14.023Z,51.18
2019-05-20T02:02:43.091Z,51.90
2019-05-20T02:05:12.014Z,52.87
2019-05-20T02:07:40.774Z,51.60
2019-05-20T02:10:10.084Z,50.63
2019-05-20T02:12:38.829Z,51.47
2019-05-20T02:15:12.386Z,49.60
2019-05-20T02:17:41.342Z,51.37
2019-05-20T02:20:11.088Z,51.47
2019-05-20T02:22:39.844Z,48.60
2019-05-20T02:25:08.877Z,47.10
2019-05-20T02:27:37.622Z,47.87
2019-05-20T02:30:12.248Z,49.50
2019-05-20T02:32:41.142Z,46.73
2019-05-20T02:35:09.894Z,46.75
2019-05-20T02:37:38.589Z,49.37
2019-05-20T02:40:09.144Z,45.80
2019-05-20T02:42:37.844Z,45.83
2019-05-20T02:45:07.974Z,44.17
2019-05-20T02:47:36.762Z,45.30
2019-05-20T02:50:08.329Z,46.10
2019-05-20T02:52:37.124Z,47.07
2019-05-20T02:55:07.550Z,46.00
2019-05-20T02:57:36.351Z,41.63
2019-05-20T03:00:07.958Z,43.83
2019-05-20T03:02:36.845Z,44.07
2019-05-20T03:05:07.299Z,46.30
2019-05-20T03:07:36.133Z,42.17
2019-05-20T03:10:07.163Z,43.78
2019-05-20T03:12:36.013Z,43.80
2019-05-20T03:15:10.336Z,42.88
2019-05-20T03:17:39.094Z,41.37
2019-05-20T03:20:09.463Z,41.90
2019-05-20T03:22:38.268Z,40.53
2019-05-20T03:25:08.506Z,39.73
2019-05-20T03:27:37.396Z,39.70
2019-05-20T03:30:07.608Z,40.17
2019-05-20T03:32:36.531Z,38.00
2019-05-20T03:35:07.477Z,41.33
2019-05-20T03:37:36.271Z,40.53
2019-05-20T03:40:06.531Z,41.40
2019-05-20T03:42:35.432Z,41.23
2019-05-20T03:45:06.562Z,36.90
2019-05-20T03:47:35.350Z,39.40
2019-05-20T03:50:05.469Z,37.63
2019-05-20T03:52:34.238Z,38.70
2019-05-20T03:55:03.048Z,39.67
2019-05-20T03:57:31.842Z,37.87
2019-05-20T04:00:00.691Z,37.20
2019-05-20T04:02:29.434Z,38.67
2019-05-20T04:05:02.442Z,38.78
2019-05-20T04:07:28.765Z,35.50
2019-05-20T04:09:57.534Z,34.53
2019-05-20T04:12:26.446Z,35.20
2019-05-20T04:14:55.206Z,38.70
2019-05-20T04:17:23.993Z,35.80
2019-05-20T04:19:52.812Z,35.40
2019-05-20T04:22:21.601Z,36.27
2019-05-20T04:24:50.389Z,35.77
2019-05-20T04:27:19.135Z,35.50
2019-05-20T04:29:47.904Z,38.93
2019-05-20T04:32:16.661Z,36.63
2019-05-20T04:34:45.367Z,37.57
2019-05-20T04:37:14.281Z,38.20
2019-05-20T04:39:43.036Z,36.47
2019-05-20T04:42:11.783Z,33.63
2019-05-20T04:44:40.573Z,36.27
2019-05-20T04:47:09.385Z,35.17
2019-05-20T04:49:38.122Z,33.50
2019-05-20T04:52:06.919Z,37.00
2019-05-20T04:54:43.937Z,35.20
2019-05-20T04:57:13.178Z,33.13
2019-05-20T04:59:41.921Z,34.07
2019-05-20T05:02:10.681Z,32.10
2019-05-20T05:04:39.421Z,33.30
2019-05-20T05:07:08.558Z,32.80
2019-05-20T05:09:42.932Z,32.33
2019-05-20T05:12:11.993Z,31.85
2019-05-20T05:14:40.870Z,32.10
2019-05-20T05:17:09.615Z,34.27
2019-05-20T05:19:38.605Z,32.73
2019-05-20T05:22:07.496Z,31.47
2019-05-20T05:24:36.344Z,31.30
2019-05-20T05:27:05.500Z,33.73
2019-05-20T05:29:34.351Z,32.43
2019-05-20T05:32:03.105Z,32.03
2019-05-20T05:34:31.835Z,32.00
2019-05-20T05:37:00.594Z,35.23
2019-05-20T05:39:29.368Z,32.57
2019-05-20T05:41:58.120Z,33.37
2019-05-20T05:44:38.617Z,31.70
2019-05-20T05:47:07.457Z,32.73
2019-05-20T05:49:36.213Z,30.73
2019-05-20T05:52:05.211Z,31.90
2019-05-20T05:54:33.959Z,32.03
2019-05-20T05:57:02.829Z,31.17
2019-05-20T05:59:31.581Z,33.67
2019-05-20T06:02:00.330Z,32.27
2019-05-20T06:04:29.089Z,34.13
2019-05-20T06:06:57.868Z,32.23
2019-05-20T06:09:26.651Z,31.50
2019-05-20T06:11:55.394Z,32.73
2019-05-20T06:14:24.259Z,31.90
2019-05-20T06:16:53.108Z,32.90
2019-05-20T06:19:21.910Z,34.73
2019-05-20T06:21:50.706Z,35.03
2019-05-20T06:24:19.457Z,30.40
2019-05-20T06:26:48.219Z,31.23
2019-05-20T06:29:17.013Z,33.92
2019-05-20T06:31:45.753Z,32.03
2019-05-20T06:34:14.497Z,32.67
2019-05-20T06:36:45.007Z,33.00
2019-05-20T06:39:15.173Z,32.00
2019-05-20T06:41:43.938Z,33.80
2019-05-20T06:44:12.698Z,31.25
2019-05-20T06:46:41.441Z,31.10
2019-05-20T06:49:10.224Z,28.70
2019-05-20T06:51:38.970Z,31.10
2019-05-20T06:54:07.734Z,30.30
2019-05-20T06:56:37.528Z,28.47
2019-05-20T06:59:06.311Z,27.77
2019-05-20T07:01:35.074Z,28.87
2019-05-20T07:04:03.813Z,30.00
2019-05-20T07:06:45.374Z,28.67
2019-05-20T07:09:03.036Z,29.43
2019-05-20T07:11:31.907Z,31.07
2019-05-20T07:14:00.670Z,28.83
2019-05-20T07:16:29.490Z,30.43
2019-05-20T07:18:58.238Z,32.83
2019-05-20T07:21:26.983Z,31.70
2019-05-20T07:23:55.754Z,29.50
2019-05-20T07:26:24.634Z,32.20
2019-05-20T07:28:53.395Z,28.40
2019-05-20T07:31:22.129Z,29.93
2019-05-20T07:33:50.910Z,30.10
2019-05-20T07:36:19.674Z,28.80
2019-05-20T07:38:48.411Z,29.20
2019-05-20T07:41:17.194Z,29.13
2019-05-20T07:43:45.932Z,30.37
2019-05-20T07:46:16.637Z,28.50
2019-05-20T07:48:45.460Z,28.90
2019-05-20T07:51:14.919Z,30.60
2019-05-20T07:53:44.002Z,28.73
2019-05-20T07:56:21.945Z,30.43
2019-05-20T07:58:53.609Z,30.30
2019-05-20T08:01:23.037Z,28.85
2019-05-20T08:03:51.800Z,28.47
2019-05-20T08:06:20.552Z,29.80
2019-05-20T08:08:49.344Z,27.90
2019-05-20T08:11:18.020Z,27.75
2019-05-20T08:13:46.765Z,30.10
2019-05-20T08:16:15.529Z,29.95
2019-05-20T08:18:44.266Z,29.57
2019-05-20T08:21:13.153Z,31.70
2019-05-20T08:23:41.927Z,30.80
2019-05-20T08:26:10.705Z,29.98
2019-05-20T08:28:39.510Z,30.30
2019-05-20T08:31:08.329Z,30.20
2019-05-20T08:33:37.175Z,31.50
2019-05-20T08:36:05.961Z,29.83
2019-05-20T08:38:34.726Z,29.00
2019-05-20T08:41:03.658Z,27.07
2019-05-20T08:43:32.423Z,28.73
2019-05-20T08:46:01.194Z,28.80
2019-05-20T08:48:30.034Z,28.93
2019-05-20T08:50:58.786Z,30.13
2019-05-20T08:53:27.741Z,30.33
2019-05-20T08:55:56.581Z,27.10
2019-05-20T08:58:25.458Z,34.80
2019-05-20T09:00:54.324Z,30.93
2019-05-20T09:03:23.077Z,30.20
2019-05-20T09:05:52.537Z,27.90
2019-05-20T09:08:21.284Z,32.73
2019-05-20T09:10:50.060Z,31.37
2019-05-20T09:13:18.904Z,32.67
2019-05-20T09:15:47.639Z,33.63
2019-05-20T09:18:16.420Z,33.33
2019-05-20T09:20:45.166Z,33.10
2019-05-20T09:23:13.962Z,33.90
2019-05-20T09:25:42.688Z,31.83
2019-05-20T09:28:11.424Z,31.50
2019-05-20T09:30:40.200Z,33.57
2019-05-20T09:33:08.936Z,31.60
2019-05-20T09:35:37.695Z,34.03
2019-05-20T09:38:19.461Z,32.53
2019-05-20T09:40:45.861Z,32.07
2019-05-20T09:43:14.633Z,34.33
2019-05-20T09:45:43.285Z,33.73
2019-05-20T09:48:14.295Z,34.93
2019-05-20T09:50:43.208Z,32.77
2019-05-20T09:53:13.160Z,32.53
2019-05-20T09:55:41.904Z,33.17
2019-05-20T09:58:10.849Z,35.35
2019-05-20T10:00:39.516Z,32.87
2019-05-20T10:03:08.271Z,33.90
2019-05-20T10:05:37.786Z,35.30
2019-05-20T10:08:07.107Z,34.53
2019-05-20T10:10:35.972Z,34.30
2019-05-20T10:13:05.564Z,34.57
2019-05-20T10:15:34.425Z,34.43
2019-05-20T10:18:03.190Z,33.37
2019-05-20T10:20:32.029Z,33.23
2019-05-20T10:23:00.885Z,28.87
2019-05-20T10:25:29.645Z,31.10
2019-05-20T10:27:58.385Z,27.37
2019-05-20T10:30:27.147Z,28.67
2019-05-20T10:32:55.884Z,28.73
2019-05-20T10:35:24.754Z,28.40
2019-05-20T10:37:53.508Z,27.70
2019-05-20T10:40:22.350Z,26.77
2019-05-20T10:42:51.116Z,26.83
2019-05-20T10:45:19.885Z,25.67
2019-05-20T10:47:48.713Z,25.13
2019-05-20T10:50:17.518Z,26.97
2019-05-20T10:52:46.347Z,25.87
2019-05-20T10:55:15.287Z,23.00
2019-05-20T10:57:44.099Z,25.43
2019-05-20T11:00:13.102Z,22.67
2019-05-20T11:02:41.931Z,23.93
2019-05-20T11:05:10.777Z,21.67
2019-05-20T11:07:39.658Z,23.33
2019-05-20T11:10:10.391Z,22.97
2019-05-20T11:12:39.149Z,23.40
2019-05-20T11:15:11.338Z,25.37
2019-05-20T11:17:40.147Z,25.77
2019-05-20T11:20:11.376Z,22.30
2019-05-20T11:22:40.190Z,22.15
2019-05-20T11:25:09.250Z,21.70
2019-05-20T11:27:37.991Z,22.37
2019-05-20T11:30:10.627Z,23.00
2019-05-20T11:32:39.327Z,22.73
2019-05-20T11:35:09.535Z,22.80
2019-05-20T11:37:38.445Z,23.50
2019-05-20T11:40:09.329Z,23.67
2019-05-20T11:42:38.453Z,24.03
2019-05-20T11:45:09.972Z,22.73
2019-05-20T11:47:38.751Z,23.77
2019-05-20T11:50:09.888Z,23.60
2019-05-20T11:52:38.846Z,25.03
2019-05-20T11:55:08.911Z,21.67
2019-05-20T11:57:37.788Z,24.03
2019-05-20T12:00:09.022Z,23.67
2019-05-20T12:02:38.667Z,24.07
2019-05-20T12:05:09.045Z,22.10
2019-05-20T12:07:37.717Z,24.93
2019-05-20T12:10:11.254Z,23.37
2019-05-20T12:12:39.997Z,23.30
2019-05-20T12:15:10.026Z,24.17
2019-05-20T12:17:38.786Z,22.30
2019-05-20T12:20:11.923Z,22.00
2019-05-20T12:22:40.614Z,30.83
2019-05-20T12:25:10.152Z,25.23
2019-05-20T12:27:38.919Z,23.73
2019-05-20T12:30:08.213Z,23.23
2019-05-20T12:32:37.081Z,24.83
2019-05-20T12:35:08.209Z,26.73
2019-05-20T12:37:38.736Z,25.40
2019-05-20T12:40:09.138Z,25.37
2019-05-20T12:42:38.474Z,25.90
2019-05-20T12:45:10.243Z,24.17
2019-05-20T12:47:39.108Z,25.10
2019-05-20T12:50:10.276Z,25.57
2019-05-20T12:52:39.034Z,25.50
2019-05-20T12:55:10.543Z,24.90
2019-05-20T12:57:39.309Z,26.00
2019-05-20T13:00:11.373Z,24.73
2019-05-20T13:02:43.964Z,26.40
2019-05-20T13:05:13.438Z,25.35
2019-05-20T13:07:42.248Z,26.33
2019-05-20T13:10:28.237Z,24.87
2019-05-20T13:12:43.045Z,23.23
2019-05-20T13:15:12.494Z,25.20
2019-05-20T13:17:44.626Z,25.10
2019-05-20T13:20:11.948Z,23.43
2019-05-20T13:22:40.686Z,23.30
2019-05-20T13:25:09.446Z,25.73
2019-05-20T13:27:38.202Z,26.80
2019-05-20T13:30:08.844Z,26.70
2019-05-20T13:32:37.599Z,26.17
2019-05-20T13:35:07.653Z,23.23
2019-05-20T13:37:36.411Z,23.13
2019-05-20T13:40:07.580Z,23.47
2019-05-20T13:42:37.052Z,25.70
2019-05-20T13:45:08.857Z,24.33
2019-05-20T13:47:37.625Z,21.70
2019-05-20T13:50:08.652Z,23.65
2019-05-20T13:52:37.462Z,25.10
2019-05-20T13:55:06.462Z,24.33
2019-05-20T13:57:35.312Z,23.80
2019-05-20T14:00:05.659Z,23.33
2019-05-20T14:02:34.416Z,23.50
2019-05-20T14:05:03.219Z,23.43
2019-05-20T14:07:32.133Z,25.60
2019-05-20T14:10:00.895Z,26.43
2019-05-20T14:12:29.662Z,25.50
2019-05-20T14:14:58.415Z,24.27
2019-05-20T14:17:27.673Z,24.00
2019-05-20T14:19:56.534Z,23.23
2019-05-20T14:22:25.344Z,25.90
2019-05-20T14:24:54.112Z,24.23
2019-05-20T14:27:22.857Z,25.63
2019-05-20T14:29:51.654Z,25.37
2019-05-20T14:32:20.431Z,25.70
2019-05-20T14:34:49.220Z,23.90
2019-05-20T14:37:18.024Z,25.60
2019-05-20T14:39:46.956Z,24.67
2019-05-20T14:42:16.701Z,26.55
2019-05-20T14:44:45.488Z,24.03
2019-05-20T14:47:14.418Z,25.83
2019-05-20T14:49:45.969Z,24.87
2019-05-20T14:52:16.230Z,23.57
2019-05-20T14:54:46.860Z,25.23
2019-05-20T14:57:15.691Z,23.62
2019-05-20T14:59:47.430Z,24.00
2019-05-20T15:02:16.182Z,22.80
2019-05-20T15:04:44.977Z,23.27
2019-05-20T15:07:28.592Z,22.62
2019-05-20T15:09:44.357Z,22.23
2019-05-20T15:12:13.184Z,21.50
2019-05-20T15:14:42.637Z,24.17
2019-05-20T15:17:20.891Z,22.40
2019-05-20T15:19:49.799Z,22.93
2019-05-20T15:22:18.634Z,23.23
2019-05-20T15:24:47.411Z,21.43
2019-05-20T15:27:16.175Z,23.43
2019-05-20T15:29:44.910Z,26.00
2019-05-20T15:32:13.699Z,24.47
2019-05-20T15:34:42.466Z,25.83
2019-05-20T15:37:11.223Z,25.62
2019-05-20T15:39:39.979Z,25.03
2019-05-20T15:42:08.783Z,24.23
2019-05-20T15:44:37.549Z,23.97
2019-05-20T15:47:06.278Z,26.13
2019-05-20T15:49:35.051Z,26.83
2019-05-20T15:52:03.810Z,24.83
2019-05-20T15:54:32.599Z,26.17
2019-05-20T15:57:01.372Z,26.00
2019-05-20T15:59:44.831Z,25.17
2019-05-20T16:02:00.585Z,27.30
2019-05-20T16:04:29.255Z,25.10
2019-05-20T16:07:00.289Z,26.87
2019-05-20T16:09:28.469Z,26.20
2019-05-20T16:11:57.206Z,25.63
2019-05-20T16:14:25.902Z,24.30
2019-05-20T16:16:54.687Z,27.57
2019-05-20T16:19:23.450Z,26.70
2019-05-20T16:21:52.190Z,25.20
2019-05-20T16:24:20.952Z,24.70
2019-05-20T16:26:49.743Z,25.00
2019-05-20T16:29:18.560Z,24.70
2019-05-20T16:31:47.324Z,26.23
2019-05-20T16:34:16.213Z,25.12
2019-05-20T16:36:44.997Z,23.70
2019-05-20T16:39:13.749Z,26.53
2019-05-20T16:41:42.608Z,24.40
2019-05-20T16:44:11.354Z,24.10
2019-05-20T16:46:40.246Z,24.50
2019-05-20T16:49:09.098Z,24.37
2019-05-20T16:51:37.932Z,25.07
2019-05-20T16:54:06.715Z,23.80
2019-05-20T16:56:35.458Z,25.10
2019-05-20T16:59:04.236Z,23.50
2019-05-20T17:01:45.554Z,24.37
2019-05-20T17:04:03.501Z,24.00
2019-05-20T17:06:32.237Z,24.00
2019-05-20T17:09:01.054Z,22.67
2019-05-20T17:11:29.788Z,24.97
2019-05-20T17:13:58.554Z,23.87
2019-05-20T17:16:27.331Z,25.63
2019-05-20T17:18:56.090Z,23.20
2019-05-20T17:21:24.857Z,23.90
2019-05-20T17:23:53.695Z,24.43
2019-05-20T17:26:22.481Z,25.20
2019-05-20T17:28:51.293Z,23.40
2019-05-20T17:31:20.137Z,24.65
2019-05-20T17:33:48.939Z,24.90
2019-05-20T17:36:17.698Z,22.70
2019-05-20T17:38:46.530Z,25.57
2019-05-20T17:41:15.431Z,24.00
2019-05-20T17:43:44.199Z,24.70
2019-05-20T17:46:12.931Z,22.37
2019-05-20T17:48:41.804Z,20.80
2019-05-20T17:51:10.661Z,18.98
2019-05-20T17:53:39.448Z,19.10
2019-05-20T17:56:10.919Z,18.90
2019-05-20T17:58:39.792Z,18.23
2019-05-20T18:01:15.535Z,18.90
2019-05-20T18:03:39.086Z,20.00
2019-05-20T18:06:07.879Z,21.30
2019-05-20T18:08:38.210Z,16.33
2019-05-20T18:11:07.102Z,18.47
2019-05-20T18:13:35.915Z,18.43
2019-05-20T18:16:05.223Z,20.52
2019-05-20T18:18:34.022Z,19.77
2019-05-20T18:21:02.765Z,20.03
2019-05-20T18:23:31.528Z,19.10
2019-05-20T18:26:03.474Z,20.20
2019-05-20T18:28:30.925Z,20.77
2019-05-20T18:30:59.666Z,21.40
2019-05-20T18:33:28.397Z,19.03
2019-05-20T18:35:57.092Z,20.70
2019-05-20T18:38:25.862Z,21.10
2019-05-20T18:40:54.815Z,21.03
2019-05-20T18:43:23.577Z,22.43
2019-05-20T18:45:52.388Z,21.43
2019-05-20T18:48:21.275Z,20.30
2019-05-20T18:50:50.023Z,19.30
2019-05-20T18:53:18.761Z,19.42
2019-05-20T18:55:47.547Z,18.23
2019-05-20T18:58:16.685Z,18.70
2019-05-20T19:00:48.121Z,17.63
2019-05-20T19:03:17.040Z,18.92
2019-05-20T19:05:46.027Z,17.50
2019-05-20T19:08:14.908Z,18.03
2019-05-20T19:10:43.733Z,16.10
2019-05-20T19:13:12.601Z,18.12
2019-05-20T19:15:41.501Z,17.45
2019-05-20T19:18:10.258Z,16.67
2019-05-20T19:20:48.529Z,16.07
2019-05-20T19:23:17.710Z,14.95
2019-05-20T19:25:46.505Z,15.40
2019-05-20T19:28:15.254Z,17.33
2019-05-20T19:30:44.050Z,17.77
2019-05-20T19:33:12.884Z,15.10
2019-05-20T19:35:41.689Z,14.30
2019-05-20T19:38:10.431Z,13.17
2019-05-20T19:40:39.209Z,14.60
2019-05-20T19:43:08.021Z,16.37
2019-05-20T19:45:36.783Z,15.70
2019-05-20T19:48:06.543Z,16.62
2019-05-20T19:50:35.290Z,15.87
2019-05-20T19:53:04.069Z,14.30
2019-05-20T19:55:33.162Z,14.07
2019-05-20T19:58:01.901Z,14.40
2019-05-20T20:00:30.642Z,15.20
2019-05-20T20:02:59.433Z,18.20
2019-05-20T20:05:31.531Z,15.07
2019-05-20T20:08:00.317Z,16.47
2019-05-20T20:10:29.073Z,15.70
2019-05-20T20:12:57.984Z,17.45
2019-05-20T20:15:26.737Z,15.40
2019-05-20T20:17:55.500Z,16.87
2019-05-20T20:20:24.286Z,15.60
2019-05-20T20:22:53.044Z,17.70
2019-05-20T20:25:21.766Z,14.87
2019-05-20T20:27:50.547Z,15.63
2019-05-20T20:30:19.383Z,16.43
2019-05-20T20:32:49.249Z,14.43
2019-05-20T20:35:19.328Z,13.93
2019-05-20T20:37:48.103Z,14.27
2019-05-20T20:40:18.861Z,13.97
2019-05-20T20:42:47.974Z,12.63
2019-05-20T20:45:17.111Z,11.20
2019-05-20T20:47:46.006Z,12.23
2019-05-20T20:50:16.454Z,11.60
2019-05-20T20:52:46.321Z,10.80
2019-05-20T20:55:16.256Z,11.73
2019-05-20T20:57:45.171Z,12.40
2019-05-20T21:00:14.402Z,11.13
2019-05-20T21:02:52.602Z,12.27
2019-05-20T21:05:13.997Z,11.70
2019-05-20T21:07:42.883Z,11.67
2019-05-20T21:10:12.240Z,11.97
2019-05-20T21:12:41.115Z,12.50
2019-05-20T21:15:10.522Z,11.47
2019-05-20T21:17:39.173Z,11.93
2019-05-20T21:20:09.143Z,11.80
2019-05-20T21:22:38.617Z,10.67
2019-05-20T21:25:08.467Z,11.50
2019-05-20T21:27:37.278Z,10.97
2019-05-20T21:30:10.415Z,11.85
2019-05-20T21:32:39.205Z,11.43
2019-05-20T21:35:07.977Z,11.73
2019-05-20T21:37:36.845Z,11.90
2019-05-20T21:40:06.282Z,10.60
2019-05-20T21:42:35.032Z,11.53
2019-05-20T21:45:05.439Z,11.10
2019-05-20T21:47:34.319Z,12.20
2019-05-20T21:50:03.064Z,12.50
2019-05-20T21:52:31.812Z,12.00
2019-05-20T21:55:00.694Z,13.60
2019-05-20T21:57:29.428Z,14.07
2019-05-20T21:59:58.155Z,13.65
2019-05-20T22:02:27.083Z,12.57
2019-05-20T22:04:55.951Z,12.00
2019-05-20T22:07:24.765Z,12.30
2019-05-20T22:09:53.521Z,11.57
2019-05-20T22:12:22.272Z,13.40
2019-05-20T22:14:52.815Z,12.50
2019-05-20T22:17:21.607Z,12.80
2019-05-20T22:19:50.390Z,13.93
2019-05-20T22:22:37.022Z,13.53
2019-05-20T22:25:06.019Z,13.30
2019-05-20T22:27:34.761Z,14.33
2019-05-20T22:30:04.944Z,13.53
2019-05-20T22:32:33.696Z,13.57
2019-05-20T22:35:02.431Z,14.17
2019-05-20T22:37:31.189Z,13.30
2019-05-20T22:39:59.987Z,15.60
2019-05-20T22:42:28.809Z,13.90
2019-05-20T22:44:57.645Z,14.53
2019-05-20T22:47:27.435Z,17.03
2019-05-20T22:49:56.870Z,15.57
2019-05-20T22:52:34.997Z,17.30
2019-05-20T22:55:07.409Z,16.37
2019-05-20T22:57:37.280Z,14.47
2019-05-20T23:00:07.165Z,14.83
2019-05-20T23:02:36.629Z,14.57
2019-05-20T23:05:08.940Z,13.70
2019-05-20T23:07:38.447Z,14.83
2019-05-20T23:10:10.820Z,14.73
2019-05-20T23:12:40.599Z,13.13
2019-05-20T23:15:10.447Z,13.17
2019-05-20T23:17:41.312Z,13.53
2019-05-20T23:20:11.104Z,13.20
2019-05-20T23:22:40.590Z,15.37
2019-05-20T23:25:10.197Z,15.47
2019-05-20T23:27:39.881Z,15.20
2019-05-20T23:30:09.786Z,15.30
2019-05-20T23:32:39.278Z,14.00
2019-05-20T23:35:09.115Z,15.30
2019-05-20T23:37:38.617Z,15.87
2019-05-20T23:40:08.420Z,16.30
2019-05-20T23:42:37.908Z,17.90
2019-05-20T23:45:10.227Z,18.60
2019-05-20T23:47:39.014Z,18.57
2019-05-20T23:50:09.060Z,20.80
2019-05-20T23:52:37.793Z,23.00
2019-05-20T23:55:09.123Z,24.67
2019-05-20T23:57:37.930Z,26.47
